createdAt,value
2018-08-20T00:01:25.186Z,108.93
2018-08-20T00:03:53.702Z,115.07
2018-08-20T00:06:22.258Z,104.23
2018-08-20T00:08:50.786Z,107.43
2018-08-20T00:11:19.277Z,103.63
2018-08-20T00:13:47.765Z,108.37
2018-08-20T00:16:16.261Z,104.80
2018-08-20T00:18:44.809Z,97.07
2018-08-20T00:21:13.313Z,100.10
2018-08-20T00:23:41.842Z,100.40
2018-08-20T00:26:10.363Z,97.60
2018-08-20T00:28:38.846Z,98.13
2018-08-20T00:31:07.681Z,89.97
2018-08-20T00:33:36.233Z,86.57
2018-08-20T00:36:04.719Z,98.13
2018-08-20T00:38:33.214Z,92.00
2018-08-20T00:41:01.737Z,93.93
2018-08-20T00:43:30.275Z,92.70
2018-08-20T00:45:58.785Z,90.10
2018-08-20T00:48:27.271Z,86.47
2018-08-20T00:50:55.819Z,88.07
2018-08-20T00:53:24.361Z,92.60
2018-08-20T00:55:52.870Z,98.67
2018-08-20T00:58:21.455Z,86.77
2018-08-20T01:00:49.951Z,88.10
2018-08-20T01:03:19.151Z,84.37
2018-08-20T01:05:48.590Z,92.43
2018-08-20T01:08:17.143Z,91.70
2018-08-20T01:10:45.626Z,88.27
2018-08-20T01:13:14.161Z,86.87
2018-08-20T01:15:42.654Z,85.07
2018-08-20T01:18:11.440Z,84.60
2018-08-20T01:20:40.067Z,86.33
2018-08-20T01:23:08.642Z,77.20
2018-08-20T01:25:37.132Z,85.70
2018-08-20T01:28:05.828Z,72.03
2018-08-20T01:30:34.407Z,77.47
2018-08-20T01:33:09.935Z,75.17
2018-08-20T01:35:38.449Z,76.40
2018-08-20T01:38:07.012Z,75.33
2018-08-20T01:40:35.515Z,77.67
2018-08-20T01:43:04.012Z,65.07
2018-08-20T01:45:32.514Z,73.10
2018-08-20T01:48:01.072Z,75.33
2018-08-20T01:50:29.583Z,72.40
2018-08-20T01:52:58.127Z,73.93
2018-08-20T01:55:26.697Z,73.30
2018-08-20T01:57:55.199Z,67.63
2018-08-20T02:00:23.790Z,76.67
2018-08-20T02:02:55.193Z,66.87
2018-08-20T02:05:24.215Z,68.80
2018-08-20T02:07:52.918Z,68.37
2018-08-20T02:10:21.402Z,70.13
2018-08-20T02:12:49.910Z,73.27
2018-08-20T02:15:18.402Z,71.53
2018-08-20T02:17:46.915Z,69.73
2018-08-20T02:20:15.422Z,64.13
2018-08-20T02:22:44.150Z,64.37
2018-08-20T02:25:13.185Z,70.30
2018-08-20T02:27:41.712Z,65.63
2018-08-20T02:30:10.264Z,65.57
2018-08-20T02:32:38.978Z,64.87
2018-08-20T02:35:08.032Z,64.33
2018-08-20T02:37:41.661Z,65.80
2018-08-20T02:40:11.083Z,66.40
2018-08-20T02:42:39.569Z,64.37
2018-08-20T02:45:10.592Z,62.93
2018-08-20T02:47:40.392Z,67.30
2018-08-20T02:50:09.299Z,61.20
2018-08-20T02:52:37.773Z,60.40
2018-08-20T02:55:06.522Z,63.53
2018-08-20T02:57:35.207Z,58.93
2018-08-20T03:00:03.698Z,59.00
2018-08-20T03:02:32.434Z,63.47
2018-08-20T03:05:00.967Z,60.70
2018-08-20T03:07:29.464Z,60.20
2018-08-20T03:09:57.953Z,62.07
2018-08-20T03:12:26.489Z,61.67
2018-08-20T03:14:54.994Z,54.50
2018-08-20T03:17:23.491Z,58.80
2018-08-20T03:19:51.977Z,62.80
2018-08-20T03:22:20.522Z,57.13
2018-08-20T03:24:49.010Z,58.53
2018-08-20T03:27:17.506Z,40.30
2018-08-20T03:29:45.998Z,23.77
2018-08-20T03:32:14.484Z,14.93
2018-08-20T03:34:42.966Z,14.57
2018-08-20T03:37:11.600Z,14.03
2018-08-20T03:39:40.106Z,10.70
2018-08-20T03:42:08.599Z,12.23
2018-08-20T03:44:37.134Z,8.90
2018-08-20T03:47:05.772Z,10.53
2018-08-20T03:49:34.270Z,10.37
2018-08-20T03:52:03.215Z,9.47
2018-08-20T03:54:31.707Z,8.77
2018-08-20T03:57:00.244Z,9.27
2018-08-20T03:59:35.441Z,9.93
2018-08-20T04:02:05.253Z,9.20
2018-08-20T04:04:33.750Z,12.90
2018-08-20T04:07:03.552Z,9.43
2018-08-20T04:09:32.549Z,10.87
2018-08-20T04:12:01.931Z,10.60
2018-08-20T04:14:30.660Z,10.53
2018-08-20T04:16:59.710Z,13.10
2018-08-20T04:19:28.709Z,9.80
2018-08-20T04:21:57.426Z,8.93
2018-08-20T04:24:25.959Z,12.57
2018-08-20T04:26:54.411Z,12.10
2018-08-20T04:29:23.272Z,8.50
2018-08-20T04:31:51.774Z,9.10
2018-08-20T04:34:20.268Z,10.43
2018-08-20T04:36:48.798Z,8.47
2018-08-20T04:39:17.305Z,8.23
2018-08-20T04:41:45.818Z,8.90
2018-08-20T04:44:14.298Z,8.27
2018-08-20T04:46:42.816Z,11.63
2018-08-20T04:49:11.332Z,8.57
2018-08-20T04:51:39.911Z,9.57
2018-08-20T04:54:08.403Z,10.07
2018-08-20T04:56:37.902Z,8.07
2018-08-20T04:59:06.931Z,8.23
2018-08-20T05:01:35.421Z,11.70
2018-08-20T05:04:03.961Z,9.93
2018-08-20T05:06:32.484Z,9.47
2018-08-20T05:09:01.032Z,8.43
2018-08-20T05:11:29.655Z,8.70
2018-08-20T05:13:58.133Z,9.63
2018-08-20T05:16:26.630Z,8.50
2018-08-20T05:18:55.237Z,12.23
2018-08-20T05:21:23.683Z,9.70
2018-08-20T05:23:52.179Z,8.90
2018-08-20T05:26:21.441Z,8.03
2018-08-20T05:28:49.978Z,11.60
2018-08-20T05:31:18.473Z,13.60
2018-08-20T05:33:47.027Z,11.43
2018-08-20T05:36:15.565Z,13.60
2018-08-20T05:38:44.045Z,10.33
2018-08-20T05:41:12.560Z,10.50
2018-08-20T05:43:41.098Z,13.20
2018-08-20T05:46:09.612Z,13.43
2018-08-20T05:48:38.705Z,15.17
2018-08-20T05:51:07.300Z,10.83
2018-08-20T05:53:35.848Z,12.53
2018-08-20T05:56:04.386Z,11.70
2018-08-20T05:58:32.906Z,13.10
2018-08-20T06:01:01.403Z,14.07
2018-08-20T06:03:30.386Z,11.13
2018-08-20T06:05:58.869Z,14.87
2018-08-20T06:08:27.383Z,14.47
2018-08-20T06:10:55.921Z,10.40
2018-08-20T06:13:24.430Z,11.23
2018-08-20T06:15:52.931Z,14.27
2018-08-20T06:18:21.543Z,11.63
2018-08-20T06:20:50.044Z,11.87
2018-08-20T06:23:19.171Z,13.77
2018-08-20T06:25:47.729Z,17.50
2018-08-20T06:28:16.201Z,13.87
2018-08-20T06:30:44.724Z,17.00
2018-08-20T06:33:13.224Z,14.23
2018-08-20T06:35:41.769Z,15.97
2018-08-20T06:38:10.387Z,15.27
2018-08-20T06:40:38.883Z,13.17
2018-08-20T06:43:07.559Z,12.83
2018-08-20T06:45:36.022Z,15.57
2018-08-20T06:48:04.488Z,13.63
2018-08-20T06:50:32.959Z,11.00
2018-08-20T06:53:01.426Z,12.90
2018-08-20T06:55:29.917Z,16.90
2018-08-20T06:57:58.497Z,11.80
2018-08-20T07:00:26.992Z,12.73
2018-08-20T07:02:55.442Z,9.50
2018-08-20T07:05:23.935Z,10.63
2018-08-20T07:07:52.390Z,14.90
2018-08-20T07:10:20.865Z,13.23
2018-08-20T07:12:49.333Z,12.53
2018-08-20T07:15:17.797Z,10.97
2018-08-20T07:17:46.292Z,12.37
2018-08-20T07:20:15.915Z,11.23
2018-08-20T07:22:44.768Z,14.57
2018-08-20T07:25:13.244Z,16.27
2018-08-20T07:27:41.723Z,11.67
2018-08-20T07:30:11.454Z,10.33
2018-08-20T07:32:39.919Z,11.90
2018-08-20T07:35:08.408Z,23.57
2018-08-20T07:37:36.898Z,12.63
2018-08-20T07:40:06.891Z,8.80
2018-08-20T07:42:35.345Z,16.60
2018-08-20T07:45:03.840Z,16.70
2018-08-20T07:47:32.291Z,19.90
2018-08-20T07:50:00.780Z,12.13
2018-08-20T07:52:29.264Z,13.80
2018-08-20T07:54:57.721Z,13.67
2018-08-20T07:57:26.210Z,14.00
2018-08-20T07:59:54.683Z,10.03
2018-08-20T08:02:23.147Z,12.47
2018-08-20T08:04:51.633Z,13.87
2018-08-20T08:07:20.093Z,14.60
2018-08-20T08:09:48.558Z,10.03
2018-08-20T08:12:17.022Z,8.97
2018-08-20T08:14:45.484Z,9.10
2018-08-20T08:17:13.941Z,9.80
2018-08-20T08:19:42.421Z,9.73
2018-08-20T08:22:10.910Z,11.93
2018-08-20T08:24:39.386Z,8.47
2018-08-20T08:27:07.843Z,10.70
2018-08-20T08:29:36.305Z,12.30
2018-08-20T08:32:04.762Z,6.87
2018-08-20T08:34:33.248Z,8.77
2018-08-20T08:37:02.319Z,10.67
2018-08-20T08:39:30.783Z,9.07
2018-08-20T08:41:59.250Z,12.33
2018-08-20T08:44:27.711Z,8.23
2018-08-20T08:46:56.176Z,6.97
2018-08-20T08:49:24.634Z,10.30
2018-08-20T08:51:53.107Z,8.50
2018-08-20T08:54:21.571Z,10.53
2018-08-20T08:56:50.044Z,11.37
2018-08-20T08:59:18.556Z,12.90
2018-08-20T09:01:47.046Z,9.63
2018-08-20T09:04:15.520Z,7.27
2018-08-20T09:06:43.965Z,8.50
2018-08-20T09:09:12.450Z,9.23
2018-08-20T09:11:40.931Z,7.67
2018-08-20T09:14:09.389Z,9.37
2018-08-20T09:16:38.094Z,7.37
2018-08-20T09:19:06.658Z,7.93
2018-08-20T09:21:35.371Z,7.70
2018-08-20T09:24:03.838Z,9.63
2018-08-20T09:26:32.299Z,7.33
2018-08-20T09:29:00.777Z,8.93
2018-08-20T09:31:29.227Z,9.47
2018-08-20T09:33:57.686Z,10.60
2018-08-20T09:36:26.150Z,8.50
2018-08-20T09:38:54.614Z,7.50
2018-08-20T09:41:23.065Z,9.27
2018-08-20T09:43:51.562Z,10.37
2018-08-20T09:46:20.056Z,8.27
2018-08-20T09:48:48.531Z,9.33
2018-08-20T09:51:17.016Z,8.23
2018-08-20T09:53:45.486Z,7.80
2018-08-20T09:56:13.965Z,7.83
2018-08-20T09:58:42.425Z,8.33
2018-08-20T10:01:10.892Z,8.40
2018-08-20T10:03:43.491Z,8.50
2018-08-20T10:06:11.957Z,8.50
2018-08-20T10:08:40.564Z,7.70
2018-08-20T10:11:09.613Z,7.97
2018-08-20T10:13:38.157Z,9.27
2018-08-20T10:16:07.224Z,8.17
2018-08-20T10:18:36.304Z,7.50
2018-08-20T10:21:04.749Z,12.23
2018-08-20T10:23:33.216Z,10.97
2018-08-20T10:26:01.806Z,7.80
2018-08-20T10:28:30.286Z,8.10
2018-08-20T10:30:58.759Z,9.27
2018-08-20T10:33:27.352Z,7.17
2018-08-20T10:35:55.815Z,9.40
2018-08-20T10:38:24.392Z,9.60
2018-08-20T10:40:52.850Z,14.03
2018-08-20T10:43:21.299Z,10.87
2018-08-20T10:45:54.971Z,7.57
2018-08-20T10:48:23.442Z,9.13
2018-08-20T10:50:51.923Z,9.83
2018-08-20T10:53:20.397Z,9.00
2018-08-20T10:55:48.862Z,8.97
2018-08-20T10:58:17.333Z,9.33
2018-08-20T11:00:45.786Z,9.33
2018-08-20T11:03:14.300Z,8.57
2018-08-20T11:05:42.760Z,8.00
2018-08-20T11:08:11.223Z,10.77
2018-08-20T11:10:39.718Z,15.37
2018-08-20T11:13:08.203Z,25.73
2018-08-20T11:15:36.666Z,18.83
2018-08-20T11:18:05.419Z,22.97
2018-08-20T11:20:33.906Z,27.37
2018-08-20T11:23:02.419Z,26.20
2018-08-20T11:25:30.910Z,25.27
2018-08-20T11:27:59.369Z,19.33
2018-08-20T11:30:27.838Z,20.57
2018-08-20T11:32:56.493Z,22.30
2018-08-20T11:35:25.258Z,25.40
2018-08-20T11:37:54.049Z,32.20
2018-08-20T11:40:22.959Z,21.73
2018-08-20T11:42:51.936Z,23.30
2018-08-20T11:45:20.618Z,20.77
2018-08-20T11:47:49.414Z,24.87
2018-08-20T11:50:18.061Z,25.53
2018-08-20T11:52:46.896Z,23.07
2018-08-20T11:55:15.569Z,24.40
2018-08-20T11:57:44.251Z,18.37
2018-08-20T12:00:13.091Z,21.63
2018-08-20T12:02:41.866Z,19.43
2018-08-20T12:05:11.012Z,19.00
2018-08-20T12:07:39.801Z,18.27
2018-08-20T12:10:09.784Z,18.60
2018-08-20T12:12:38.933Z,20.03
2018-08-20T12:15:09.414Z,18.27
2018-08-20T12:17:37.975Z,21.77
2018-08-20T12:20:07.092Z,16.17
2018-08-20T12:22:35.557Z,18.30
2018-08-20T12:25:04.666Z,22.30
2018-08-20T12:27:33.126Z,18.37
2018-08-20T12:30:01.723Z,19.47
2018-08-20T12:32:30.194Z,15.00
2018-08-20T12:34:58.641Z,20.43
2018-08-20T12:37:27.288Z,18.57
2018-08-20T12:39:56.105Z,14.43
2018-08-20T12:42:24.574Z,18.27
2018-08-20T12:44:53.094Z,16.60
2018-08-20T12:47:21.553Z,16.77
2018-08-20T12:49:50.031Z,18.40
2018-08-20T12:52:18.537Z,12.40
2018-08-20T12:54:47.006Z,14.90
2018-08-20T12:57:15.753Z,15.20
2018-08-20T12:59:44.213Z,14.43
2018-08-20T13:02:12.948Z,16.83
2018-08-20T13:04:41.751Z,17.37
2018-08-20T13:07:10.525Z,16.13
2018-08-20T13:09:39.205Z,13.53
2018-08-20T13:12:07.892Z,18.47
2018-08-20T13:14:36.571Z,18.50
2018-08-20T13:17:05.265Z,11.63
2018-08-20T13:19:33.835Z,12.53
2018-08-20T13:22:02.532Z,19.30
2018-08-20T13:24:31.639Z,13.97
2018-08-20T13:27:00.478Z,14.77
2018-08-20T13:29:29.838Z,11.53
2018-08-20T13:31:58.343Z,11.30
2018-08-20T13:34:27.090Z,11.13
2018-08-20T13:36:55.768Z,14.90
2018-08-20T13:39:24.651Z,19.13
2018-08-20T13:41:53.441Z,12.87
2018-08-20T13:44:22.392Z,14.90
2018-08-20T13:46:51.127Z,18.07
2018-08-20T13:49:19.634Z,9.87
2018-08-20T13:51:48.402Z,11.63
2018-08-20T13:54:17.189Z,12.93
2018-08-20T13:56:45.870Z,12.67
2018-08-20T13:59:14.561Z,11.10
2018-08-20T14:01:43.454Z,16.20
2018-08-20T14:04:12.157Z,13.40
2018-08-20T14:06:40.978Z,12.97
2018-08-20T14:09:10.990Z,11.23
2018-08-20T14:11:39.732Z,10.83
2018-08-20T14:14:08.768Z,10.50
2018-08-20T14:16:37.725Z,10.63
2018-08-20T14:19:06.721Z,9.50
2018-08-20T14:21:35.452Z,10.27
2018-08-20T14:24:04.802Z,11.37
2018-08-20T14:26:33.421Z,9.63
2018-08-20T14:29:02.169Z,12.33
2018-08-20T14:31:30.860Z,9.77
2018-08-20T14:33:59.651Z,12.57
2018-08-20T14:36:28.368Z,12.27
2018-08-20T14:38:56.870Z,7.33
2018-08-20T14:41:25.331Z,8.00
2018-08-20T14:43:53.808Z,10.43
2018-08-20T14:46:23.328Z,8.60
2018-08-20T14:48:53.029Z,10.70
2018-08-20T14:51:22.667Z,8.30
2018-08-20T14:53:51.136Z,9.67
2018-08-20T14:56:19.658Z,10.30
2018-08-20T14:58:48.110Z,13.33
2018-08-20T15:01:16.623Z,13.27
2018-08-20T15:03:45.124Z,11.57
2018-08-20T15:06:13.600Z,10.97
2018-08-20T15:08:42.075Z,10.13
2018-08-20T15:11:10.553Z,10.53
2018-08-20T15:13:39.032Z,12.50
2018-08-20T15:16:07.891Z,9.40
2018-08-20T15:18:36.243Z,9.70
2018-08-20T15:21:04.726Z,10.90
2018-08-20T15:23:33.195Z,14.27
2018-08-20T15:26:01.675Z,8.87
2018-08-20T15:28:30.144Z,9.23
2018-08-20T15:30:58.598Z,9.20
2018-08-20T15:33:27.045Z,9.17
2018-08-20T15:35:55.699Z,10.37
2018-08-20T15:38:24.210Z,13.03
2018-08-20T15:40:52.671Z,9.37
2018-08-20T15:43:21.155Z,12.93
2018-08-20T15:45:49.658Z,10.50
2018-08-20T15:48:21.787Z,11.37
2018-08-20T15:50:50.274Z,11.37
2018-08-20T15:53:18.752Z,11.33
2018-08-20T15:55:47.236Z,12.97
2018-08-20T15:58:15.701Z,11.03
2018-08-20T16:00:44.176Z,11.30
2018-08-20T16:03:12.671Z,12.23
2018-08-20T16:05:41.147Z,9.10
2018-08-20T16:08:09.598Z,8.67
2018-08-20T16:10:38.054Z,10.13
2018-08-20T16:13:06.645Z,8.43
2018-08-20T16:15:35.083Z,9.20
2018-08-20T16:18:03.580Z,10.53
2018-08-20T16:20:32.110Z,11.30
2018-08-20T16:23:00.635Z,12.63
2018-08-20T16:25:29.107Z,10.20
2018-08-20T16:27:57.575Z,10.57
2018-08-20T16:30:26.030Z,9.20
2018-08-20T16:32:54.527Z,12.67
2018-08-20T16:35:23.122Z,9.40
2018-08-20T16:37:51.584Z,9.00
2018-08-20T16:40:20.136Z,9.07
2018-08-20T16:42:48.625Z,11.30
2018-08-20T16:45:17.124Z,9.67
2018-08-20T16:47:45.603Z,17.60
2018-08-20T16:50:14.457Z,11.57
2018-08-20T16:52:43.334Z,12.77
2018-08-20T16:55:11.808Z,11.87
2018-08-20T16:57:40.283Z,12.77
2018-08-20T17:00:10.942Z,11.33
2018-08-20T17:02:43.323Z,9.60
2018-08-20T17:05:13.298Z,14.50
2018-08-20T17:07:41.894Z,9.87
2018-08-20T17:10:11.907Z,12.70
2018-08-20T17:12:40.674Z,14.03
2018-08-20T17:15:10.385Z,10.97
2018-08-20T17:17:39.254Z,9.43
2018-08-20T17:20:09.157Z,10.37
2018-08-20T17:22:37.626Z,19.70
2018-08-20T17:25:06.826Z,8.97
2018-08-20T17:27:35.315Z,13.00
2018-08-20T17:30:03.931Z,11.53
2018-08-20T17:32:32.448Z,11.20
2018-08-20T17:35:00.938Z,16.87
2018-08-20T17:37:29.414Z,12.80
2018-08-20T17:40:04.777Z,13.87
2018-08-20T17:42:33.830Z,14.20
2018-08-20T17:45:02.882Z,26.80
2018-08-20T17:47:32.108Z,16.27
2018-08-20T17:50:01.141Z,16.17
2018-08-20T17:52:32.974Z,14.03
2018-08-20T17:55:03.368Z,14.23
2018-08-20T17:57:31.913Z,12.70
2018-08-20T18:00:41.758Z,14.87
2018-08-20T18:03:20.351Z,9.30
2018-08-20T18:06:06.612Z,13.80
2018-08-20T18:08:35.395Z,13.43
2018-08-20T18:11:04.383Z,14.00
2018-08-20T18:13:43.557Z,11.53
2018-08-20T18:16:14.312Z,14.20
2018-08-20T18:18:45.433Z,11.13
2018-08-20T18:21:13.917Z,14.07
2018-08-20T18:23:42.391Z,12.47
2018-08-20T18:26:10.896Z,16.53
2018-08-20T18:28:45.454Z,12.57
2018-08-20T18:31:18.247Z,14.87
2018-08-20T18:33:46.715Z,12.83
2018-08-20T18:36:17.196Z,10.03
2018-08-20T18:38:52.373Z,13.63
2018-08-20T18:41:22.990Z,14.20
2018-08-20T18:43:51.449Z,15.57
2018-08-20T18:46:19.924Z,11.20
2018-08-20T18:48:48.746Z,11.37
2018-08-20T18:51:17.451Z,15.10
2018-08-20T18:53:45.915Z,8.97
2018-08-20T18:56:17.619Z,12.20
2018-08-20T18:58:46.243Z,12.47
2018-08-20T19:01:14.753Z,16.20
2018-08-20T19:03:48.573Z,13.13
2018-08-20T19:06:17.834Z,14.40
2018-08-20T19:08:46.361Z,12.53
2018-08-20T19:11:14.819Z,14.23
2018-08-20T19:13:44.050Z,15.50
2018-08-20T19:16:37.258Z,12.00
2018-08-20T19:19:06.924Z,9.90
2018-08-20T19:21:40.844Z,12.50
2018-08-20T19:24:09.871Z,15.40
2018-08-20T19:26:38.381Z,15.17
2018-08-20T19:29:19.886Z,17.33
2018-08-20T19:31:48.395Z,27.10
2018-08-20T19:34:16.931Z,37.23
2018-08-20T19:36:45.416Z,13.50
2018-08-20T19:39:13.892Z,17.23
2018-08-20T19:41:42.393Z,29.57
2018-08-20T19:44:10.891Z,17.77
2018-08-20T19:46:39.883Z,22.87
2018-08-20T19:49:11.688Z,32.83
2018-08-20T19:51:41.810Z,25.20
2018-08-20T19:54:12.611Z,21.97
2018-08-20T19:56:41.112Z,20.50
2018-08-20T19:59:09.814Z,23.27
2018-08-20T20:01:38.399Z,14.70
2018-08-20T20:04:07.065Z,27.60
2018-08-20T20:06:35.590Z,28.03
2018-08-20T20:09:07.807Z,17.03
2018-08-20T20:11:41.779Z,17.63
2018-08-20T20:14:10.260Z,21.50
2018-08-20T20:16:44.045Z,25.27
2018-08-20T20:19:12.685Z,20.63
2018-08-20T20:21:41.192Z,20.40
2018-08-20T20:24:10.383Z,22.87
2018-08-20T20:26:39.088Z,17.23
2018-08-20T20:29:08.808Z,17.93
2018-08-20T20:31:38.572Z,22.60
2018-08-20T20:34:07.422Z,25.93
2018-08-20T20:36:36.010Z,23.03
2018-08-20T20:39:05.937Z,20.83
2018-08-20T20:41:34.457Z,15.27
2018-08-20T20:44:02.984Z,17.33
2018-08-20T20:46:31.528Z,21.07
2018-08-20T20:49:00.031Z,16.00
2018-08-20T20:51:28.525Z,18.80
2018-08-20T20:53:57.053Z,18.83
2018-08-20T20:56:25.542Z,19.00
2018-08-20T20:58:54.050Z,17.80
2018-08-20T21:01:22.533Z,12.70
2018-08-20T21:03:51.039Z,14.67
2018-08-20T21:06:19.505Z,11.27
2018-08-20T21:08:49.058Z,11.53
2018-08-20T21:11:19.200Z,9.70
2018-08-20T21:13:47.981Z,12.10
2018-08-20T21:16:18.676Z,13.73
2018-08-20T21:18:53.866Z,14.07
2018-08-20T21:21:23.139Z,11.90
2018-08-20T21:23:51.634Z,12.27
2018-08-20T21:26:20.197Z,12.57
2018-08-20T21:28:51.910Z,10.57
2018-08-20T21:31:22.583Z,9.90
2018-08-20T21:33:55.233Z,15.73
2018-08-20T21:36:23.728Z,11.17
2018-08-20T21:38:52.215Z,20.73
2018-08-20T21:41:28.084Z,15.23
2018-08-20T21:43:57.170Z,10.47
2018-08-20T21:46:25.686Z,10.80
2018-08-20T21:48:54.807Z,13.43
2018-08-20T21:51:25.056Z,17.53
2018-08-20T21:53:53.584Z,9.87
2018-08-20T21:56:22.195Z,10.17
2018-08-20T21:58:50.738Z,11.73
2018-08-20T22:01:19.319Z,10.27
2018-08-20T22:03:47.878Z,11.07
2018-08-20T22:06:17.236Z,10.77
2018-08-20T22:08:46.295Z,12.07
2018-08-20T22:11:14.878Z,9.27
2018-08-20T22:13:43.406Z,9.40
2018-08-20T22:16:22.005Z,9.13
2018-08-20T22:18:57.020Z,9.77
2018-08-20T22:21:25.955Z,11.27
2018-08-20T22:24:00.370Z,10.37
2018-08-20T22:26:29.119Z,10.40
2018-08-20T22:28:58.407Z,10.17
2018-08-20T22:31:26.918Z,9.37
2018-08-20T22:34:00.766Z,10.30
2018-08-20T22:36:31.081Z,9.80
2018-08-20T22:39:01.581Z,10.00
2018-08-20T22:41:31.065Z,9.50
2018-08-20T22:43:59.639Z,10.97
2018-08-20T22:46:28.294Z,9.20
2018-08-20T22:48:59.292Z,9.33
2018-08-20T22:51:29.139Z,10.03
2018-08-20T22:53:59.213Z,9.47
2018-08-20T22:56:29.770Z,9.80
2018-08-20T22:59:00.620Z,13.57
2018-08-20T23:01:29.369Z,9.20
2018-08-20T23:03:58.052Z,9.83
2018-08-20T23:06:26.951Z,9.23
2018-08-20T23:08:55.494Z,8.90
2018-08-20T23:11:38.246Z,9.87
2018-08-20T23:14:08.441Z,11.17
2018-08-20T23:16:37.471Z,11.13
2018-08-20T23:19:06.026Z,9.37
2018-08-20T23:21:49.298Z,10.03
2018-08-20T23:24:18.508Z,11.77
2018-08-20T23:26:47.029Z,9.23
2018-08-20T23:29:15.580Z,9.57
2018-08-20T23:31:44.117Z,9.60
2018-08-20T23:34:13.880Z,9.97
2018-08-20T23:36:42.758Z,9.80
2018-08-20T23:39:17.245Z,12.03
2018-08-20T23:41:45.777Z,11.87
2018-08-20T23:44:17.167Z,9.07
2018-08-20T23:46:47.606Z,11.63
2018-08-20T23:49:16.238Z,10.83
2018-08-20T23:51:44.849Z,9.67
2018-08-20T23:54:13.853Z,8.90
2018-08-20T23:56:42.528Z,9.73
2018-08-20T23:59:11.954Z,9.43
